createdAt,value
2023-03-04T00:00:00.352Z,26.48
2023-03-04T00:02:29.761Z,33.45
2023-03-04T00:04:58.313Z,26.05
2023-03-04T00:07:27.059Z,26.20
2023-03-04T00:09:55.982Z,24.20
2023-03-04T00:12:24.676Z,28.63
2023-03-04T00:14:53.285Z,26.23
2023-03-04T00:17:23.955Z,30.48
2023-03-04T00:19:52.365Z,27.95
2023-03-04T00:22:21.052Z,25.85
2023-03-04T00:24:50.256Z,20.33
2023-03-04T00:27:19.256Z,22.77
2023-03-04T00:29:48.594Z,23.98
2023-03-04T00:32:19.440Z,22.23
2023-03-04T00:34:50.019Z,34.25
2023-03-04T00:37:20.178Z,29.55
2023-03-04T00:39:49.153Z,25.42
2023-03-04T00:42:18.050Z,19.48
2023-03-04T00:44:47.272Z,22.20
2023-03-04T00:47:15.828Z,28.63
2023-03-04T07:03:47.977Z,20.00
2023-03-04T07:24:18.287Z,22.77
2023-03-04T07:26:48.300Z,17.33
2023-03-04T15:35:27.678Z,19.57
2023-03-04T15:37:58.174Z,20.67
2023-03-04T15:40:33.366Z,20.93
2023-03-04T15:45:40.701Z,16.20
2023-03-04T15:48:12.780Z,14.40
2023-03-04T15:55:54.936Z,20.33
2023-03-04T15:58:23.847Z,22.20
2023-03-04T16:00:54.449Z,16.97
2023-03-04T16:03:23.846Z,19.43
2023-03-04T16:05:53.482Z,12.60
2023-03-04T16:11:04.984Z,12.57
2023-03-04T16:13:34.174Z,19.30
2023-03-04T16:16:02.910Z,19.93
2023-03-04T16:18:31.843Z,18.07
2023-03-04T16:21:01.451Z,20.73
2023-03-04T16:23:30.063Z,20.07
2023-03-04T16:25:59.045Z,27.03
2023-03-04T16:28:28.707Z,17.10
2023-03-04T16:30:56.825Z,27.23
2023-03-04T16:33:25.504Z,18.80
2023-03-04T16:35:53.784Z,16.37
2023-03-04T16:38:26.046Z,17.67
2023-03-04T16:40:54.557Z,23.60
2023-03-04T16:43:23.656Z,18.07
2023-03-04T16:45:53.780Z,24.07
2023-03-04T16:48:22.472Z,19.10
2023-03-04T16:50:51.437Z,20.93
2023-03-04T16:53:28.912Z,26.53
2023-03-04T16:55:59.253Z,30.93
2023-03-04T16:58:27.702Z,21.67
2023-03-04T17:00:58.039Z,29.13
2023-03-04T17:03:26.305Z,18.43
2023-03-04T17:05:54.707Z,16.50
2023-03-04T17:08:23.680Z,15.17
2023-03-04T17:10:52.796Z,16.53
2023-03-04T17:13:21.425Z,15.53
2023-03-04T17:15:50.568Z,18.00
2023-03-04T17:18:20.327Z,17.87
2023-03-04T17:20:48.712Z,31.70
2023-03-04T17:23:17.851Z,24.17
2023-03-04T17:25:46.447Z,14.90
2023-03-04T17:28:15.137Z,16.07
2023-03-04T17:30:44.178Z,16.97
2023-03-04T17:33:12.802Z,24.23
2023-03-04T17:35:42.363Z,16.63
2023-03-04T17:38:11.336Z,24.30
2023-03-04T17:40:39.744Z,18.40
2023-03-04T17:43:12.040Z,17.10
2023-03-04T17:45:41.034Z,21.10
2023-03-04T17:48:15.418Z,21.60
2023-03-04T17:50:51.399Z,21.13
2023-03-04T17:53:21.038Z,19.63
2023-03-04T17:55:53.297Z,17.07
2023-03-04T17:58:22.614Z,28.07
2023-03-04T18:00:53.008Z,17.93
2023-03-04T18:03:22.448Z,21.40
2023-03-04T18:05:52.312Z,16.13
2023-03-04T18:08:23.559Z,16.40
2023-03-04T18:10:52.884Z,25.63
2023-03-04T18:13:21.785Z,32.83
2023-03-04T18:15:50.347Z,28.10
2023-03-04T18:18:19.258Z,17.20
2023-03-04T18:20:48.174Z,17.17
2023-03-04T18:23:18.080Z,19.30
2023-03-04T18:25:46.946Z,20.83
2023-03-04T18:28:16.148Z,18.33
2023-03-04T18:30:45.098Z,25.27
2023-03-04T18:33:14.628Z,24.13
2023-03-04T18:35:43.119Z,19.27
2023-03-04T18:38:11.895Z,28.20
2023-03-04T18:40:43.521Z,26.70
2023-03-04T18:43:11.896Z,25.43
2023-03-04T18:45:41.508Z,23.97
2023-03-04T18:48:10.564Z,27.23
2023-03-04T18:50:39.529Z,18.90
2023-03-04T18:53:09.000Z,26.47
2023-03-04T18:55:38.346Z,19.70
2023-03-04T18:58:08.285Z,22.70
2023-03-04T19:00:36.965Z,20.00
2023-03-04T19:03:09.831Z,26.23
2023-03-04T19:05:38.333Z,22.33
2023-03-04T19:08:07.001Z,19.93
2023-03-04T19:10:35.813Z,26.63
2023-03-04T19:13:04.550Z,27.10
2023-03-04T19:15:34.388Z,24.40
2023-03-04T19:18:03.596Z,22.47
2023-03-04T19:20:31.827Z,23.20
2023-03-04T19:23:00.111Z,17.00
2023-03-04T19:25:28.801Z,20.60
2023-03-04T19:27:57.211Z,25.90
2023-03-04T19:30:25.706Z,16.90
2023-03-04T19:32:56.748Z,22.03
2023-03-04T19:35:25.007Z,16.27
2023-03-04T19:37:53.406Z,18.90
2023-03-04T19:40:22.995Z,22.17
2023-03-04T19:42:52.390Z,26.40
2023-03-04T19:45:21.269Z,20.97
2023-03-04T19:47:50.149Z,22.70
2023-03-04T19:50:20.578Z,22.13
2023-03-04T19:52:49.074Z,22.80
2023-03-04T19:55:18.195Z,18.40
2023-03-04T19:57:46.839Z,18.70
2023-03-04T20:00:16.119Z,14.97
2023-03-04T20:02:46.532Z,22.60
2023-03-04T20:05:15.955Z,22.10
2023-03-04T20:07:46.072Z,11.50
2023-03-04T20:10:16.984Z,17.00
2023-03-04T20:12:45.132Z,17.40
2023-03-04T20:15:13.992Z,15.60
2023-03-04T20:17:42.739Z,22.73
2023-03-04T20:20:12.665Z,21.67
2023-03-04T20:22:41.325Z,21.87
2023-03-04T20:25:12.272Z,17.90
2023-03-04T20:27:41.157Z,21.80
2023-03-04T20:30:10.967Z,18.70
2023-03-04T20:32:40.098Z,21.30
2023-03-04T20:35:14.362Z,14.27
2023-03-04T20:37:43.546Z,18.30
2023-03-04T20:40:15.228Z,16.60
2023-03-04T20:42:43.882Z,21.50
2023-03-04T20:45:13.084Z,27.30
2023-03-04T20:47:41.649Z,18.70
2023-03-04T20:50:11.307Z,21.37
2023-03-04T20:52:39.387Z,20.67
2023-03-04T20:55:08.506Z,19.70
2023-03-04T20:57:40.046Z,24.73
2023-03-04T21:00:10.142Z,27.97
2023-03-04T21:02:38.752Z,23.33
2023-03-04T21:05:07.827Z,22.53
2023-03-04T21:07:36.055Z,28.97
2023-03-04T21:10:05.798Z,26.37
2023-03-04T21:12:34.199Z,30.80
2023-03-04T21:15:03.840Z,22.70
2023-03-04T21:17:32.207Z,28.23
2023-03-04T21:20:00.442Z,26.67
2023-03-04T21:22:28.897Z,27.33
2023-03-04T21:24:57.207Z,25.70
2023-03-04T21:27:25.742Z,34.13
2023-03-04T21:29:54.202Z,27.53
2023-03-04T21:32:26.566Z,21.13
2023-03-04T21:34:56.946Z,26.20
2023-03-04T21:37:26.425Z,28.93
2023-03-04T21:39:55.154Z,24.57
2023-03-04T21:42:23.727Z,29.57
2023-03-04T21:44:52.146Z,25.63
2023-03-04T21:47:21.170Z,34.47
2023-03-04T21:49:50.688Z,29.13
2023-03-04T21:52:19.854Z,30.37
2023-03-04T21:54:49.173Z,31.27
2023-03-04T21:57:17.762Z,29.73
2023-03-04T21:59:46.067Z,29.40
2023-03-04T22:02:17.237Z,29.93
2023-03-04T22:04:45.466Z,28.10
2023-03-04T22:07:15.097Z,29.40
2023-03-04T22:09:43.807Z,26.60
2023-03-04T22:12:12.101Z,31.20
2023-03-04T22:14:40.440Z,30.67
2023-03-04T22:17:09.162Z,32.40
2023-03-04T22:19:37.597Z,36.97
2023-03-04T22:22:06.476Z,43.13
2023-03-04T22:24:36.613Z,31.73
2023-03-04T22:27:04.868Z,32.73
2023-03-04T22:29:32.825Z,37.07
2023-03-04T22:32:01.712Z,31.43
2023-03-04T22:34:29.933Z,29.43
2023-03-04T22:36:58.290Z,32.13
2023-03-04T22:39:26.774Z,26.53
2023-03-04T22:41:56.437Z,29.97
2023-03-04T22:44:24.647Z,29.60
2023-03-04T22:46:53.326Z,28.10
2023-03-04T22:49:21.391Z,32.30
2023-03-04T22:51:49.678Z,30.87
2023-03-04T22:54:20.206Z,32.13
2023-03-04T22:56:48.263Z,32.93
2023-03-04T22:59:18.156Z,37.67
2023-03-04T23:01:46.776Z,36.93
2023-03-04T23:04:14.742Z,36.67
2023-03-04T23:06:42.998Z,31.57
2023-03-04T23:09:11.820Z,34.13
2023-03-04T23:11:40.015Z,26.50
2023-03-04T23:14:12.103Z,27.83
2023-03-04T23:16:44.173Z,49.63
2023-03-04T23:19:14.942Z,36.20
2023-03-04T23:21:44.646Z,28.83
2023-03-04T23:24:14.343Z,33.50
2023-03-04T23:26:44.404Z,41.47
2023-03-04T23:29:16.490Z,38.10
2023-03-04T23:31:46.359Z,29.77
2023-03-04T23:34:14.743Z,35.93
2023-03-04T23:36:43.739Z,35.87
2023-03-04T23:39:14.510Z,40.23
2023-03-04T23:41:43.159Z,36.23
2023-03-04T23:44:13.290Z,33.67
2023-03-04T23:46:41.535Z,31.73
2023-03-04T23:49:14.650Z,32.87
2023-03-04T23:51:44.399Z,32.40
2023-03-04T23:54:12.853Z,34.33
2023-03-04T23:56:41.181Z,31.80
2023-03-04T23:59:09.286Z,40.40
